Time;durP1;ratioP1;P1;durP2;ratioP2;P2;SDS_P1;SDS_P2;PMS_P1;PMS_P2;Temp;Humidity;BMP_temperature;BMP_pressure;BME280_temperature;BME280_humidity;BME280_pressure;Samples;Min_cycle;Max_cycle;Signal;HPM_P1;HPM_P2
2021/10/14 00:00:39;;;;;;;10.80;8.20;;;154.40;2252.80;;;;;;5075118;28;20124;-76
2021/10/14 00:03:05;;;;;;;10.80;7.32;;;154.40;2252.80;;;;;;5074883;28;20013;-77
2021/10/14 00:05:31;;;;;;;9.75;6.68;;;154.20;2252.80;;;;;;5072249;28;20021;-76
2021/10/14 00:07:57;;;;;;;12.00;8.10;;;154.10;2252.80;;;;;;5050420;28;20024;-76
2021/10/14 00:10:23;;;;;;;12.68;7.97;;;154.10;2252.80;;;;;;5063291;28;20024;-76
2021/10/14 00:12:49;;;;;;;12.48;8.10;;;154.00;2252.80;;;;;;5063519;28;20035;-76
2021/10/14 00:15:15;;;;;;;13.73;7.47;;;153.90;2252.80;;;;;;5052616;28;20458;-76
2021/10/14 00:17:40;;;;;;;13.18;7.72;;;153.90;2252.80;;;;;;5064733;28;20070;-76
2021/10/14 00:20:08;;;;;;;11.02;7.55;;;153.90;2252.80;;;;;;5049294;28;20029;-77
2021/10/14 00:22:34;;;;;;;12.88;7.55;;;153.80;2252.80;;;;;;5080921;28;20029;-76
2021/10/14 00:25:00;;;;;;;10.80;7.90;;;153.70;2252.80;;;;;;5065937;28;20443;-76
2021/10/14 00:27:26;;;;;;;12.63;8.18;;;153.70;2252.80;;;;;;5086652;28;20032;-76
2021/10/14 00:29:52;;;;;;;13.88;8.25;;;153.70;2252.80;;;;;;5077531;28;20292;-76
2021/10/14 00:32:18;;;;;;;10.38;6.97;;;153.70;2252.80;;;;;;5078614;28;20036;-76
2021/10/14 00:34:43;;;;;;;12.57;7.80;;;153.70;2252.80;;;;;;5070979;28;20036;-76
2021/10/14 00:37:09;;;;;;;12.40;7.75;;;153.70;2252.80;;;;;;5064420;28;20422;-76
2021/10/14 00:39:35;;;;;;;12.32;7.90;;;153.70;2252.80;;;;;;5054417;28;20353;-76
2021/10/14 00:42:01;;;;;;;9.93;7.22;;;153.70;2252.80;;;;;;5079548;28;20038;-76
2021/10/14 00:44:26;;;;;;;10.40;6.72;;;153.80;2252.80;;;;;;5071301;28;20028;-76
2021/10/14 00:46:55;;;;;;;10.55;7.15;;;153.70;2252.80;;;;;;5054047;28;20025;-76
2021/10/14 00:49:22;;;;;;;10.68;7.05;;;153.70;2252.80;;;;;;5063433;28;20033;-76
2021/10/14 00:51:48;;;;;;;12.98;7.55;;;153.60;2252.80;;;;;;5054158;28;20025;-76
2021/10/14 00:54:19;;;;;;;11.45;7.57;;;153.60;2252.80;;;;;;5061241;28;20407;-75
2021/10/14 00:56:45;;;;;;;9.95;6.25;;;128.90;2252.80;;;;;;5068810;28;20081;-76
2021/10/14 00:59:12;;;;;;;12.27;7.72;;;128.80;2252.80;;;;;;5072095;28;20104;-75
2021/10/14 01:01:38;;;;;;;10.98;7.65;;;128.70;2252.80;;;;;;5071644;28;20023;-76
2021/10/14 01:04:05;;;;;;;13.48;7.97;;;128.70;2252.80;;;;;;5065941;28;20039;-77
2021/10/14 01:06:31;;;;;;;10.93;7.20;;;128.70;2252.80;;;;;;5070618;28;20017;-76
2021/10/14 01:08:57;;;;;;;14.02;7.38;;;128.70;2252.80;;;;;;5053209;28;20025;-77
2021/10/14 01:11:24;;;;;;;11.68;7.63;;;128.70;2252.80;;;;;;5072371;28;20537;-75
2021/10/14 01:13:50;;;;;;;14.20;8.05;;;128.70;2252.80;;;;;;5068097;28;20047;-76
2021/10/14 01:16:16;;;;;;;10.27;7.60;;;128.60;2252.80;;;;;;5053470;28;20098;-76
2021/10/14 01:18:42;;;;;;;12.00;8.15;;;128.50;2252.80;;;;;;5066925;28;20025;-76
2021/10/14 01:21:08;;;;;;;12.15;8.48;;;128.60;2252.80;;;;;;5057970;28;20024;-76
2021/10/14 01:23:38;;;;;;;13.18;7.93;;;128.60;2252.80;;;;;;5054036;28;20035;-76
2021/10/14 01:26:04;;;;;;;10.70;7.43;;;128.60;2252.80;;;;;;5058411;28;20063;-75
2021/10/14 01:28:30;;;;;;;13.30;7.63;;;128.70;2252.80;;;;;;5058371;28;20392;-75
2021/10/14 01:30:58;;;;;;;12.25;9.02;;;128.70;2252.80;;;;;;5071181;28;20032;-75
2021/10/14 01:33:24;;;;;;;15.38;8.88;;;128.70;2252.80;;;;;;5070021;28;20025;-75
2021/10/14 01:35:50;;;;;;;9.60;7.70;;;128.70;2252.80;;;;;;5068987;28;20111;-75
2021/10/14 01:38:18;;;;;;;15.48;8.45;;;128.60;2252.80;;;;;;5070828;28;20025;-76
2021/10/14 01:40:44;;;;;;;13.68;8.25;;;128.60;2252.80;;;;;;5071834;28;20491;-75
2021/10/14 01:43:14;;;;;;;11.93;7.95;;;128.60;2252.80;;;;;;5070463;28;20024;-75
2021/10/14 01:45:40;;;;;;;13.10;8.27;;;128.60;2252.80;;;;;;5053859;28;20379;-75
2021/10/14 01:48:06;;;;;;;14.88;9.30;;;128.60;2252.80;;;;;;5070143;28;20507;-75
2021/10/14 01:50:32;;;;;;;10.70;8.38;;;128.50;2252.80;;;;;;5072039;28;20025;-75
2021/10/14 01:52:58;;;;;;;12.18;8.25;;;128.50;2252.80;;;;;;5071634;28;20107;-75
2021/10/14 01:55:23;;;;;;;11.52;8.23;;;128.60;2252.80;;;;;;5071972;28;20099;-75
2021/10/14 01:57:49;;;;;;;13.15;8.65;;;128.70;2252.80;;;;;;5062373;28;20024;-75
2021/10/14 02:00:16;;;;;;;13.95;8.80;;;128.70;2252.80;;;;;;5071663;28;20459;-76
2021/10/14 02:02:41;;;;;;;13.15;8.45;;;128.70;2252.80;;;;;;5060481;28;20115;-76
2021/10/14 02:05:08;;;;;;;14.38;9.98;;;128.60;2252.80;;;;;;5053266;28;20108;-76
2021/10/14 02:07:34;;;;;;;14.20;9.10;;;128.50;2252.80;;;;;;5071888;28;20476;-76
2021/10/14 02:09:59;;;;;;;16.52;11.10;;;128.60;2252.80;;;;;;5071106;28;20086;-76
2021/10/14 02:12:25;;;;;;;14.80;10.82;;;128.50;2252.80;;;;;;5053719;28;20063;-76
2021/10/14 02:14:52;;;;;;;12.30;10.07;;;128.60;2252.80;;;;;;5062393;28;20046;-76
2021/10/14 02:17:17;;;;;;;12.70;8.00;;;128.60;2252.80;;;;;;5053319;28;20064;-76
2021/10/14 02:19:43;;;;;;;13.77;9.18;;;128.60;2252.80;;;;;;5069827;28;20033;-76
2021/10/14 02:22:09;;;;;;;14.93;8.88;;;128.60;2252.80;;;;;;5071599;28;20464;-76
2021/10/14 02:24:36;;;;;;;16.30;10.70;;;128.70;2252.80;;;;;;5070260;28;20471;-75
2021/10/14 02:27:02;;;;;;;13.38;10.15;;;128.60;2252.80;;;;;;5065074;28;20024;-76
2021/10/14 02:29:28;;;;;;;14.52;9.82;;;128.60;2252.80;;;;;;5072220;28;20032;-76
2021/10/14 02:31:54;;;;;;;13.93;8.93;;;128.70;2252.80;;;;;;5056626;28;20028;-76
2021/10/14 02:34:20;;;;;;;21.27;10.18;;;128.70;2252.80;;;;;;5075268;28;20028;-75
2021/10/14 02:36:46;;;;;;;14.65;9.65;;;128.60;2252.80;;;;;;5073117;28;20514;-75
2021/10/14 02:39:12;;;;;;;14.43;9.85;;;128.40;2252.80;;;;;;5075059;28;20060;-76
2021/10/14 02:41:37;;;;;;;13.60;9.25;;;128.30;2252.80;;;;;;5074476;28;20019;-76
2021/10/14 02:44:04;;;;;;;16.08;10.57;;;128.20;2252.80;;;;;;5064141;28;20028;-75
2021/10/14 02:46:30;;;;;;;17.20;10.65;;;128.20;2252.80;;;;;;5076923;28;20021;-76
2021/10/14 02:48:55;;;;;;;16.27;11.50;;;128.20;2252.80;;;;;;5083815;28;20029;-75
2021/10/14 02:51:21;;;;;;;17.40;11.65;;;128.20;2252.80;;;;;;5080227;28;20028;-75
2021/10/14 02:53:47;;;;;;;13.25;11.20;;;128.20;2252.80;;;;;;5053811;28;20050;-76
2021/10/14 02:56:13;;;;;;;18.20;10.70;;;128.10;2252.80;;;;;;5080498;28;20016;-76
2021/10/14 02:58:39;;;;;;;15.20;9.98;;;128.10;2252.80;;;;;;5067056;28;20030;-75
2021/10/14 03:01:04;;;;;;;13.20;9.25;;;128.20;2252.80;;;;;;5060899;28;20146;-75
2021/10/14 03:03:32;;;;;;;15.48;9.90;;;128.20;2252.80;;;;;;5076270;28;20108;-75
2021/10/14 03:05:58;;;;;;;14.65;10.70;;;128.30;2252.80;;;;;;5081481;28;20112;-74
2021/10/14 03:08:24;;;;;;;17.63;11.05;;;128.30;2252.80;;;;;;5060644;28;20021;-75
2021/10/14 03:10:50;;;;;;;15.57;11.30;;;128.30;2252.80;;;;;;5072268;28;20027;-75
2021/10/14 03:13:16;;;;;;;16.48;13.23;;;128.20;2252.80;;;;;;5070300;28;20484;-75
2021/10/14 03:15:42;;;;;;;18.83;12.50;;;128.20;2252.80;;;;;;5072432;28;20054;-75
2021/10/14 03:18:08;;;;;;;17.02;10.88;;;128.30;2252.80;;;;;;5062094;28;20044;-75
2021/10/14 03:20:34;;;;;;;15.93;10.35;;;128.30;2252.80;;;;;;5071702;28;20499;-75
2021/10/14 03:23:00;;;;;;;14.70;10.73;;;128.20;2252.80;;;;;;5071748;28;20032;-75
2021/10/14 03:25:26;;;;;;;19.42;12.60;;;128.20;2252.80;;;;;;5060986;28;20017;-75
2021/10/14 03:27:51;;;;;;;17.10;11.27;;;128.10;2252.80;;;;;;5085653;28;20107;-77
2021/10/14 03:30:17;;;;;;;19.17;12.75;;;128.10;2252.80;;;;;;5056530;28;20029;-76
2021/10/14 03:32:43;;;;;;;17.08;10.85;;;128.10;2252.80;;;;;;5059748;28;20024;-75
2021/10/14 03:35:09;;;;;;;14.32;10.15;;;128.00;2252.80;;;;;;5075305;28;20078;-76
2021/10/14 03:37:34;;;;;;;16.52;9.60;;;128.00;2252.80;;;;;;5064818;28;20078;-76
2021/10/14 03:40:00;;;;;;;16.92;10.13;;;128.00;2252.80;;;;;;5068695;28;20028;-75
2021/10/14 03:42:26;;;;;;;17.25;11.70;;;128.00;2252.80;;;;;;5051313;28;20027;-74
2021/10/14 03:44:52;;;;;;;15.65;9.73;;;128.20;2252.80;;;;;;5079283;28;20017;-75
2021/10/14 03:47:18;;;;;;;15.93;10.90;;;128.20;2252.80;;;;;;5056606;28;20032;-75
2021/10/14 03:49:43;;;;;;;15.07;10.85;;;128.40;2252.80;;;;;;5082442;28;20024;-76
2021/10/14 03:52:09;;;;;;;17.35;11.70;;;128.40;2252.80;;;;;;5060845;28;20506;-75
2021/10/14 03:54:35;;;;;;;20.45;13.15;;;128.50;2252.80;;;;;;5072655;28;20086;-75
2021/10/14 03:57:00;;;;;;;22.98;17.20;;;128.60;2252.80;;;;;;5054740;28;20041;-75
2021/10/14 03:59:26;;;;;;;19.50;13.70;;;128.60;2252.80;;;;;;5055246;28;20035;-76
2021/10/14 04:01:52;;;;;;;18.50;11.38;;;128.50;2252.80;;;;;;5075026;28;20039;-75
2021/10/14 04:04:17;;;;;;;17.35;12.68;;;128.60;2252.80;;;;;;5072863;28;20484;-75
2021/10/14 04:06:43;;;;;;;22.77;15.57;;;128.70;2252.80;;;;;;5063919;28;20028;-75
2021/10/14 04:09:09;;;;;;;20.90;15.60;;;128.60;2252.80;;;;;;5078745;28;20024;-75
2021/10/14 04:11:34;;;;;;;23.40;15.77;;;128.70;2252.80;;;;;;5081330;28;20025;-75
2021/10/14 04:14:00;;;;;;;24.63;15.90;;;128.60;2252.80;;;;;;5072862;28;20029;-75
2021/10/14 04:16:26;;;;;;;26.80;19.05;;;128.60;2252.80;;;;;;5054616;28;20430;-76
2021/10/14 04:18:52;;;;;;;22.77;14.25;;;128.60;2252.80;;;;;;5071476;28;20028;-75
2021/10/14 04:21:17;;;;;;;25.02;13.85;;;128.60;2252.80;;;;;;5055975;28;20041;-76
2021/10/14 04:23:44;;;;;;;16.48;11.63;;;128.50;2252.80;;;;;;5054518;28;20074;-76
2021/10/14 04:26:11;;;;;;;18.88;12.80;;;128.50;2252.80;;;;;;5083936;28;20100;-75
2021/10/14 04:28:37;;;;;;;23.40;15.07;;;128.60;2252.80;;;;;;5051160;28;20384;-76
2021/10/14 04:31:04;;;;;;;40.95;18.30;;;128.70;2252.80;;;;;;5057715;28;20036;-75
2021/10/14 04:33:30;;;;;;;22.38;13.48;;;128.50;2252.80;;;;;;5054317;28;20035;-75
2021/10/14 04:36:01;;;;;;;43.88;25.35;;;128.50;2252.80;;;;;;5058880;28;20029;-76
2021/10/14 04:38:26;;;;;;;44.95;27.60;;;128.50;2252.80;;;;;;5072404;28;20099;-76
2021/10/14 04:40:52;;;;;;;47.05;25.90;;;128.50;2252.80;;;;;;5062761;28;20123;-76
2021/10/14 04:43:18;;;;;;;42.17;22.73;;;128.50;2252.80;;;;;;5072077;28;20033;-75
2021/10/14 04:45:43;;;;;;;28.85;15.35;;;128.50;2252.80;;;;;;5055243;28;20067;-76
2021/10/14 04:48:09;;;;;;;21.77;12.70;;;128.50;2252.80;;;;;;5072099;28;20028;-75
2021/10/14 04:50:35;;;;;;;29.40;16.55;;;128.80;2252.80;;;;;;5049457;28;20043;-76
2021/10/14 04:53:00;;;;;;;26.40;16.38;;;128.50;2252.80;;;;;;5072543;28;20032;-76
2021/10/14 04:55:26;;;;;;;26.95;14.32;;;128.40;2252.80;;;;;;5088133;28;20564;-75
2021/10/14 04:57:52;;;;;;;33.83;17.25;;;128.40;2252.80;;;;;;5085486;28;20103;-74
2021/10/14 05:00:18;;;;;;;29.30;17.88;;;128.40;2252.80;;;;;;5054552;28;20406;-75
2021/10/14 05:02:43;;;;;;;40.40;20.98;;;128.40;2252.80;;;;;;5054902;28;20064;-76
2021/10/14 05:05:09;;;;;;;37.53;21.63;;;128.40;2252.80;;;;;;5055144;28;20138;-76
2021/10/14 05:07:35;;;;;;;40.65;24.13;;;128.30;2252.80;;;;;;5077861;28;20030;-75
2021/10/14 05:10:00;;;;;;;38.47;23.20;;;128.30;2252.80;;;;;;5054826;28;20123;-76
2021/10/14 05:12:26;;;;;;;34.28;18.65;;;128.30;2252.80;;;;;;5079609;28;20035;-75
2021/10/14 05:14:52;;;;;;;29.35;17.80;;;128.30;2252.80;;;;;;5056971;28;20040;-75
2021/10/14 05:17:18;;;;;;;30.70;17.10;;;128.30;2252.80;;;;;;5074975;28;20117;-75
2021/10/14 05:19:43;;;;;;;31.33;19.38;;;128.30;2252.80;;;;;;5053903;28;20494;-75
2021/10/14 05:22:09;;;;;;;41.40;21.38;;;128.30;2252.80;;;;;;5074538;28;20024;-75
2021/10/14 05:24:35;;;;;;;30.67;18.00;;;128.40;2252.80;;;;;;5081445;28;20051;-75
2021/10/14 05:27:01;;;;;;;25.83;17.35;;;128.40;2252.80;;;;;;5072067;28;20466;-75
2021/10/14 05:29:26;;;;;;;29.75;18.25;;;128.50;2252.80;;;;;;5067429;28;20033;-75
2021/10/14 05:31:52;;;;;;;40.65;22.85;;;128.50;2252.80;;;;;;5069579;28;20375;-75
2021/10/14 05:34:18;;;;;;;24.75;14.75;;;128.60;2252.80;;;;;;5072085;28;20093;-76
2021/10/14 05:36:43;;;;;;;23.52;15.13;;;128.50;2252.80;;;;;;5071650;28;20028;-76
2021/10/14 05:39:09;;;;;;;24.20;15.07;;;128.50;2252.80;;;;;;5063036;28;20497;-75
2021/10/14 05:41:35;;;;;;;28.75;15.75;;;128.50;2252.80;;;;;;5053612;28;20028;-74
2021/10/14 05:44:00;;;;;;;26.67;17.20;;;128.70;2252.80;;;;;;5053425;28;20036;-75
2021/10/14 05:46:26;;;;;;;20.05;14.43;;;128.70;2252.80;;;;;;5061126;28;20036;-75
2021/10/14 05:48:52;;;;;;;28.58;16.25;;;128.80;2252.80;;;;;;5073970;28;20105;-75
2021/10/14 05:51:17;;;;;;;28.27;15.98;;;128.70;2252.80;;;;;;5059056;28;20032;-75
2021/10/14 05:53:43;;;;;;;19.05;13.25;;;128.80;2252.80;;;;;;5081563;28;20028;-75
2021/10/14 05:56:09;;;;;;;21.85;14.75;;;128.90;2252.80;;;;;;5072170;28;20112;-75
2021/10/14 05:58:35;;;;;;;22.33;15.27;;;128.90;2252.80;;;;;;5071535;28;20029;-76
2021/10/14 06:01:00;;;;;;;26.98;14.98;;;153.60;2252.80;;;;;;5071628;28;20079;-75
2021/10/14 06:03:26;;;;;;;27.90;17.67;;;153.70;2252.80;;;;;;5068281;28;20224;-76
2021/10/14 06:05:52;;;;;;;24.58;16.80;;;153.80;2252.80;;;;;;5055359;28;20039;-76
2021/10/14 06:08:17;;;;;;;22.42;14.75;;;153.90;2252.80;;;;;;5073085;28;20082;-76
2021/10/14 06:10:43;;;;;;;20.25;15.38;;;153.90;2252.80;;;;;;5073274;28;20418;-75
2021/10/14 06:13:09;;;;;;;20.08;14.63;;;154.10;2252.80;;;;;;5073846;28;20063;-75
2021/10/14 06:15:35;;;;;;;22.65;13.43;;;154.20;2252.80;;;;;;5063581;28;20052;-76
2021/10/14 06:18:00;;;;;;;21.85;14.30;;;154.20;2252.80;;;;;;5081726;28;20150;-76
2021/10/14 06:20:26;;;;;;;21.80;15.63;;;154.40;2252.80;;;;;;5081558;28;20033;-76
2021/10/14 06:22:52;;;;;;;23.83;14.35;;;154.40;2252.80;;;;;;5074909;28;20387;-76
2021/10/14 06:25:17;;;;;;;21.80;14.63;;;154.50;2252.80;;;;;;5071082;28;20036;-76
2021/10/14 06:27:44;;;;;;;18.25;14.80;;;154.50;2252.80;;;;;;5094231;28;20047;-76
2021/10/14 06:30:10;;;;;;;20.70;13.38;;;154.50;2252.80;;;;;;5085184;28;20024;-75
2021/10/14 06:32:36;;;;;;;27.20;15.65;;;154.50;2252.80;;;;;;5072206;28;20479;-76
2021/10/14 06:35:02;;;;;;;25.27;15.90;;;179.20;2252.80;;;;;;5074752;28;20040;-76
2021/10/14 06:37:28;;;;;;;19.17;14.73;;;179.30;2252.80;;;;;;5076797;28;20032;-77
2021/10/14 06:39:54;;;;;;;24.33;15.35;;;179.30;2252.80;;;;;;5078079;28;20032;-75
2021/10/14 06:42:20;;;;;;;23.40;15.52;;;179.30;2252.80;;;;;;5056430;28;20031;-75
2021/10/14 06:44:45;;;;;;;23.15;15.65;;;179.40;2252.80;;;;;;5078232;28;20061;-76
2021/10/14 06:47:11;;;;;;;26.55;16.52;;;179.50;2252.80;;;;;;5078963;28;20077;-76
2021/10/14 06:49:37;;;;;;;25.60;16.77;;;179.70;2252.80;;;;;;5066809;28;20040;-76
2021/10/14 06:52:03;;;;;;;23.23;15.13;;;179.80;2252.80;;;;;;5074246;28;20394;-75
2021/10/14 06:54:28;;;;;;;22.90;14.40;;;180.00;2252.80;;;;;;5055934;28;20031;-74
2021/10/14 06:56:54;;;;;;;19.63;13.60;;;180.00;2252.80;;;;;;5075777;28;20589;-74
2021/10/14 06:59:20;;;;;;;21.83;13.13;;;204.90;2252.80;;;;;;5073918;28;20032;-74
2021/10/14 07:01:45;;;;;;;19.27;12.70;;;205.10;2252.80;;;;;;5056915;28;20039;-74
2021/10/14 07:04:11;;;;;;;20.13;14.07;;;205.20;2252.80;;;;;;5075000;28;20024;-75
2021/10/14 07:06:37;;;;;;;20.33;14.50;;;205.30;2252.80;;;;;;5073150;28;20103;-74
2021/10/14 07:09:03;;;;;;;18.00;13.07;;;205.40;2252.80;;;;;;5056208;28;20407;-74
2021/10/14 07:11:30;;;;;;;26.30;16.48;;;205.50;2252.80;;;;;;5066914;28;20029;-74
2021/10/14 07:13:56;;;;;;;25.15;17.48;;;205.50;2252.80;;;;;;5054644;28;20024;-74
2021/10/14 07:16:22;;;;;;;24.55;17.05;;;205.60;2252.80;;;;;;5055599;28;20036;-75
2021/10/14 07:18:48;;;;;;;27.42;18.83;;;205.60;2252.80;;;;;;5072770;28;20043;-74
2021/10/14 07:21:14;;;;;;;20.50;15.05;;;205.70;2252.80;;;;;;5074726;28;20029;-75
2021/10/14 07:23:40;;;;;;;18.38;14.57;;;230.40;2252.80;;;;;;5062789;28;20108;-74
2021/10/14 07:26:05;;;;;;;19.10;14.32;;;230.40;2252.80;;;;;;5074761;28;20402;-74
2021/10/14 07:28:31;;;;;;;20.30;15.18;;;230.40;2252.80;;;;;;5070100;28;20547;-74
2021/10/14 07:30:57;;;;;;;22.08;17.70;;;230.50;2252.80;;;;;;5055624;28;20118;-74
2021/10/14 07:33:23;;;;;;;28.15;20.85;;;230.50;2252.80;;;;;;5054852;28;20025;-76
2021/10/14 07:35:48;;;;;;;31.35;23.65;;;230.50;2252.80;;;;;;5054982;28;20036;-75
2021/10/14 07:38:14;;;;;;;44.58;30.85;;;230.60;2252.80;;;;;;5057648;28;20540;-75
2021/10/14 07:40:42;;;;;;;43.63;31.85;;;230.40;2252.80;;;;;;5072160;28;20028;-75
2021/10/14 07:43:17;;;;;;;40.20;27.42;;;230.40;2252.80;;;;;;5075809;28;20024;-74
2021/10/14 07:45:45;;;;;;;38.17;28.33;;;205.60;2252.80;;;;;;5073349;28;20024;-74
2021/10/14 07:48:11;;;;;;;35.35;28.10;;;230.40;2252.80;;;;;;5075806;28;20033;-75
2021/10/14 07:50:37;;;;;;;42.88;27.42;;;230.40;2252.80;;;;;;5070247;28;20506;-75
2021/10/14 07:53:14;;;;;;;32.85;24.95;;;230.60;2252.80;;;;;;5071779;28;20099;-75
2021/10/14 07:55:40;;;;;;;41.28;22.95;;;230.70;2252.80;;;;;;5056797;28;20502;-75
2021/10/14 07:58:07;;;;;;;40.38;24.65;;;230.60;2252.80;;;;;;5058045;28;20072;-74
2021/10/14 08:00:33;;;;;;;43.17;26.88;;;230.40;2252.80;;;;;;5070808;28;20036;-74
2021/10/14 08:02:59;;;;;;;35.20;25.25;;;230.60;2252.80;;;;;;5071522;28;20019;-74
2021/10/14 08:05:25;;;;;;;29.27;20.50;;;230.90;2252.80;;;;;;5072174;28;20108;-74
2021/10/14 08:07:51;;;;;;;25.70;17.65;;;231.10;2252.80;;;;;;5071585;28;20468;-74
2021/10/14 08:10:17;;;;;;;23.45;18.20;;;231.00;2252.80;;;;;;5056736;28;20051;-75
2021/10/14 08:12:43;;;;;;;29.08;18.42;;;230.90;2252.80;;;;;;5082633;28;20463;-74
2021/10/14 08:15:10;;;;;;;32.00;19.48;;;231.10;2252.80;;;;;;5072467;28;20083;-74
2021/10/14 08:17:36;;;;;;;21.38;16.45;;;231.20;2252.80;;;;;;5055053;28;20164;-75
2021/10/14 08:20:04;;;;;;;26.50;17.05;;;231.10;2252.80;;;;;;5063475;28;20024;-74
2021/10/14 08:22:30;;;;;;;21.95;17.35;;;230.80;2252.80;;;;;;5072795;28;20017;-74
2021/10/14 08:24:58;;;;;;;21.48;16.33;;;230.90;2252.80;;;;;;5070915;28;20372;-74
2021/10/14 08:27:24;;;;;;;24.00;18.35;;;231.30;2252.80;;;;;;5056659;28;20021;-74
2021/10/14 08:29:50;;;;;;;23.95;17.05;;;256.30;2252.80;;;;;;5066264;28;20048;-74
2021/10/14 08:32:17;;;;;;;30.73;19.60;;;256.70;2252.80;;;;;;5079025;28;20024;-74
2021/10/14 08:34:43;;;;;;;20.85;16.08;;;281.70;2278.40;;;;;;5080575;28;20021;-75
2021/10/14 08:37:08;;;;;;;20.45;16.38;;;281.90;2278.40;;;;;;5076506;28;20035;-74
2021/10/14 08:39:34;;;;;;;23.05;17.42;;;281.80;2278.40;;;;;;5069078;28;20796;-75
2021/10/14 08:42:00;;;;;;;21.00;15.48;;;282.30;2278.40;;;;;;5054830;28;20027;-74
2021/10/14 08:44:26;;;;;;;16.85;14.05;;;307.30;2304.00;;;;;;5080089;28;20023;-74
2021/10/14 08:46:56;;;;;;;16.42;14.15;;;307.30;2304.00;;;;;;5074771;28;20021;-73
2021/10/14 08:49:23;;;;;;;17.85;13.45;;;307.50;2304.00;;;;;;5072161;28;20031;-74
2021/10/14 08:51:52;;;;;;;19.25;13.90;;;307.60;2304.00;;;;;;5060316;28;20573;-74
2021/10/14 08:54:18;;;;;;;17.35;12.68;;;307.90;2304.00;;;;;;5057121;28;20033;-74
2021/10/14 08:56:47;;;;;;;14.48;12.25;;;308.00;2304.00;;;;;;5052707;28;20073;-74
2021/10/14 08:59:18;;;;;;;15.93;11.88;;;307.80;2304.00;;;;;;5055386;28;20032;-74
2021/10/14 09:02:03;;;;;;;16.23;12.95;;;307.90;2304.00;;;;;;5069668;28;20055;-74
2021/10/14 09:04:31;;;;;;;17.88;14.02;;;308.00;2304.00;;;;;;5072371;28;20107;-74
2021/10/14 09:07:12;;;;;;;17.80;10.80;;;308.10;2304.00;;;;;;5072459;28;20504;-74
2021/10/14 09:09:39;;;;;;;17.13;12.15;;;332.90;2329.60;;;;;;5055280;28;20035;-74
2021/10/14 09:12:06;;;;;;;20.38;12.05;;;333.20;2329.60;;;;;;5073220;28;20032;-72
2021/10/14 09:14:32;;;;;;;11.68;10.23;;;333.50;2329.60;;;;;;5080128;28;20020;-72
2021/10/14 09:16:58;;;;;;;12.15;8.98;;;333.60;2329.60;;;;;;5071876;28;20049;-72
2021/10/14 09:19:25;;;;;;;12.77;10.32;;;333.20;2329.60;;;;;;5052816;28;20033;-72
2021/10/14 09:22:02;;;;;;;14.48;10.38;;;333.30;2329.60;;;;;;5070956;28;20032;-72
2021/10/14 09:24:35;;;;;;;11.48;9.75;;;333.50;2329.60;;;;;;5072495;28;20023;-73
2021/10/14 09:27:13;;;;;;;13.30;9.68;;;333.50;2329.60;;;;;;5053492;28;20082;-72
2021/10/14 09:29:40;;;;;;;15.27;10.73;;;333.30;2329.60;;;;;;5081066;28;20120;-72
2021/10/14 09:32:14;;;;;;;12.30;9.23;;;333.20;2329.60;;;;;;5052527;28;20025;-73
2021/10/14 09:34:45;;;;;;;13.82;10.00;;;333.30;2329.60;;;;;;5071075;28;20029;-74
2021/10/14 09:37:15;;;;;;;15.75;10.60;;;333.00;2329.60;;;;;;5070780;28;20032;-74
2021/10/14 09:39:58;;;;;;;14.25;10.30;;;308.00;2304.00;;;;;;5075545;28;20025;-74
2021/10/14 09:43:02;;;;;;;14.75;10.32;;;307.90;2304.00;;;;;;5093731;28;20031;-73
2021/10/14 09:45:30;;;;;;;15.68;11.60;;;307.80;2304.00;;;;;;5046192;28;20086;-74
2021/10/14 09:48:11;;;;;;;19.50;14.32;;;307.70;2304.00;;;;;;5070415;28;20104;-74
2021/10/14 09:50:42;;;;;;;15.68;12.98;;;307.80;2304.00;;;;;;5053381;28;20079;-73
2021/10/14 09:53:19;;;;;;;19.48;14.75;;;307.90;2304.00;;;;;;5080267;28;20024;-74
2021/10/14 09:55:45;;;;;;;;;;;307.80;2304.00;;;;;;5068033;28;20036;-73
2021/10/14 09:58:12;;;;;;;22.60;16.75;;;307.80;2304.00;;;;;;5074268;28;19909;-74
2021/10/14 10:00:39;;;;;;;18.92;15.27;;;307.90;2304.00;;;;;;5066912;28;20028;-74
2021/10/14 10:03:06;;;;;;;20.33;15.75;;;308.10;2304.00;;;;;;5061339;28;20013;-73
2021/10/14 10:05:33;;;;;;;17.85;14.68;;;332.90;2329.60;;;;;;5072290;28;20024;-74
2021/10/14 10:08:03;;;;;;;23.85;17.23;;;333.00;2329.60;;;;;;5056020;28;20490;-74
2021/10/14 10:10:30;;;;;;;19.50;16.27;;;308.10;2304.00;;;;;;5064466;28;20471;-74
2021/10/14 10:12:59;;;;;;;25.27;19.05;;;307.90;2304.00;;;;;;5075097;28;20032;-76
2021/10/14 10:15:42;;;;;;;30.50;16.65;;;332.80;2329.60;;;;;;5060665;28;20048;-74
2021/10/14 10:18:26;;;;;;;17.42;13.68;;;333.20;2329.60;;;;;;5079465;28;20028;-73
2021/10/14 10:20:56;;;;;;;16.15;12.88;;;333.30;2329.60;;;;;;5070802;28;20029;-74
2021/10/14 10:23:44;;;;;;;18.83;15.98;;;333.40;2329.60;;;;;;5071470;28;20019;-75
2021/10/14 10:26:35;;;;;;;15.90;14.07;;;358.50;2329.60;;;;;;5044994;28;20383;-74
2021/10/14 10:29:26;;;;;;;19.13;15.05;;;358.40;2329.60;;;;;;5059400;28;20017;-74
2021/10/14 10:31:52;;;;;;;21.15;15.55;;;333.70;2329.60;;;;;;5077356;28;20020;-74
2021/10/14 10:37:23;;;;;;;20.08;15.68;;;333.60;2329.60;;;;;;5077705;28;20024;-74
2021/10/14 10:40:01;;;;;;;21.65;16.55;;;333.30;2329.60;;;;;;5076363;28;20027;-74
2021/10/14 10:42:40;;;;;;;23.33;14.77;;;333.10;2329.60;;;;;;5075901;28;20501;-74
2021/10/14 10:45:13;;;;;;;23.42;15.77;;;333.00;2329.60;;;;;;5054527;28;20442;-75
2021/10/14 10:47:47;;;;;;;19.88;14.35;;;332.90;2329.60;;;;;;5073651;28;20036;-75
2021/10/14 10:50:19;;;;;;;17.55;13.90;;;333.00;2329.60;;;;;;5054751;28;20127;-75
2021/10/14 10:52:47;;;;;;;17.00;14.70;;;333.20;2329.60;;;;;;5053927;28;20114;-75
2021/10/14 10:55:21;;;;;;;18.95;15.05;;;333.00;2329.60;;;;;;5071754;28;20035;-75
2021/10/14 10:57:52;;;;;;;20.48;15.63;;;332.90;2329.60;;;;;;5072736;28;20028;-74
2021/10/14 11:00:20;;;;;;;15.98;13.10;;;333.00;2329.60;;;;;;5074786;28;20024;-77
2021/10/14 11:02:46;;;;;;;20.55;14.15;;;332.90;2329.60;;;;;;5070936;28;20016;-76
2021/10/14 11:05:12;;;;;;;18.20;13.10;;;333.00;2329.60;;;;;;5072540;28;20062;-76
2021/10/14 11:07:38;;;;;;;20.80;14.10;;;308.00;2304.00;;;;;;5056341;28;20760;-75
2021/10/14 11:10:05;;;;;;;15.98;12.75;;;308.10;2304.00;;;;;;5054645;28;20096;-75
2021/10/14 11:12:32;;;;;;;14.68;11.63;;;308.00;2304.00;;;;;;5072454;28;20036;-76
2021/10/14 11:14:58;;;;;;;14.63;11.75;;;308.10;2304.00;;;;;;5055379;28;20033;-77
2021/10/14 11:17:26;;;;;;;23.85;13.15;;;333.00;2329.60;;;;;;5053713;28;20039;-75
2021/10/14 11:20:06;;;;;;;17.30;12.80;;;333.40;2329.60;;;;;;5064063;28;20016;-76
2021/10/14 11:22:33;;;;;;;13.50;10.85;;;358.40;2329.60;;;;;;5070353;28;20146;-76
2021/10/14 11:25:03;;;;;;;16.17;12.20;;;333.70;2329.60;;;;;;5071361;28;20055;-75
2021/10/14 11:27:29;;;;;;;13.48;10.63;;;358.60;2329.60;;;;;;5070729;28;20529;-76
2021/10/14 11:30:21;;;;;;;14.48;12.10;;;358.40;2329.60;;;;;;5070209;28;20617;-76
2021/10/14 11:32:57;;;;;;;14.40;10.90;;;358.50;2329.60;;;;;;5044781;28;20547;-76
2021/10/14 11:35:24;;;;;;;15.55;11.63;;;358.50;2329.60;;;;;;5071022;28;20024;-76
2021/10/14 11:37:50;;;;;;;15.57;12.50;;;359.00;2329.60;;;;;;5055982;28;20036;-76
2021/10/14 11:40:33;;;;;;;14.15;12.02;;;359.00;2329.60;;;;;;5051836;28;20036;-76
2021/10/14 11:43:00;;;;;;;18.95;12.65;;;359.20;2329.60;;;;;;5069384;28;20029;-77
2021/10/14 11:45:25;;;;;;;13.88;10.75;;;410.10;2355.20;;;;;;5046884;28;20028;-76
2021/10/14 11:47:51;;;;;;;12.15;10.45;;;460.80;2380.80;;;;;;5071656;28;20021;-76
2021/10/14 11:50:23;;;;;;;19.65;12.35;;;461.20;2380.80;;;;;;5053532;28;20515;-75
2021/10/14 11:53:04;;;;;;;12.98;11.10;;;486.80;2380.80;;;;;;5070760;28;20038;-76
2021/10/14 11:55:30;;;;;;;17.15;11.57;;;512.00;2380.80;;;;;;5050923;28;20027;-76
2021/10/14 11:58:00;;;;;;;12.70;10.52;;;512.50;2380.80;;;;;;5070605;28;20020;-76
2021/10/14 12:00:30;;;;;;;14.43;11.88;;;487.10;2380.80;;;;;;5051840;28;20052;-75
2021/10/14 12:02:57;;;;;;;9.93;8.63;;;487.10;2380.80;;;;;;5071184;28;20017;-75
2021/10/14 12:05:23;;;;;;;14.02;10.40;;;512.60;2304.00;;;;;;5070390;28;20074;-75